MCT weather

Muscat International Airport
Muscat, Masqat Governorate, Oman

Public forecast

Using degrees Celsius for public forecast. Weather courtesy of forecast.io.

METAR (pilot weather report)

Retrieved 2019/02/16 18:50 UTC (18 minutes ago):

OOMS 161850Z 25003KT CAVOK 23/18 Q1014 WS R08L NOSIG

TAF (pilot weather forecast)

Retrieved 2019/02/16 18:00 UTC (1 hour ago):

TAF OOMS 161700Z 1618/1724 08007KT 8000 SCT040 BECMG 1620/1622 24008KT BECMG 1706/1708 34010KT PROB30 TEMPO 1708/1718 BKN040 BECMG 1711/1713 06012KT BECMG 1717/1719 24008KT